Terminal Aerodrome Forecast
Issued by NWS

Current Version | Previous Version | Text Only | Print | Product List | Glossary On
Versions: 1 2 3 4 5 6 7 8 9 10 11 12 13 14 15 16 17
000 FTUS41 KILN 280530 TAFLCK TAF KLCK 280530Z 2806/2906 29005KT P6SM SCT080 FM281400 32010KT P6SM SCT040 FM281800 32011KT P6SM BKN045 FM290100 35007KT P6SM FEW050=

USA.gov is the U.S. government's official web portal to all federal, state and local government web resources and services.